createdAt,value
2023-05-10T00:00:05.993Z,2162.00
2023-05-10T00:01:06.031Z,2161.00
2023-05-10T00:02:06.070Z,2136.00
2023-05-10T00:03:06.168Z,2122.00
2023-05-10T00:04:06.090Z,2111.00
2023-05-10T00:05:06.080Z,2121.00
2023-05-10T00:06:06.065Z,2138.00
2023-05-10T00:07:06.068Z,2175.00
2023-05-10T00:08:06.070Z,2157.00
2023-05-10T00:09:06.104Z,2164.00
2023-05-10T00:10:06.112Z,2174.00
2023-05-10T00:11:06.099Z,2190.00
2023-05-10T00:12:06.137Z,2218.00
2023-05-10T00:13:06.161Z,2195.00
2023-05-10T00:14:06.135Z,2157.00
2023-05-10T00:15:06.167Z,2180.00
2023-05-10T00:16:06.176Z,2182.00
2023-05-10T00:17:06.181Z,2171.00
2023-05-10T00:18:06.245Z,2175.00
2023-05-10T00:19:06.240Z,2199.00
2023-05-10T00:20:06.212Z,2215.00
2023-05-10T00:21:06.248Z,2232.00
2023-05-10T00:22:06.277Z,2252.00
2023-05-10T00:23:06.258Z,2290.00
2023-05-10T00:24:06.282Z,2306.00
2023-05-10T00:25:06.305Z,2345.00
2023-05-10T00:26:06.304Z,2363.00
2023-05-10T00:27:06.361Z,2379.00
2023-05-10T00:28:06.366Z,2393.00
2023-05-10T00:29:06.361Z,2384.00
2023-05-10T00:30:06.374Z,2371.00
2023-05-10T00:31:06.397Z,2387.00
2023-05-10T00:32:06.430Z,2387.00
2023-05-10T00:33:06.452Z,2390.00
2023-05-10T00:34:06.425Z,2379.00
2023-05-10T00:35:06.470Z,2402.00
2023-05-10T00:36:06.490Z,2378.00
2023-05-10T00:37:06.481Z,2384.00
2023-05-10T00:38:06.523Z,2356.00
2023-05-10T00:39:06.540Z,2343.00
2023-05-10T00:40:06.548Z,2358.00
2023-05-10T00:41:06.587Z,2378.00
2023-05-10T00:42:06.557Z,2396.00
2023-05-10T00:43:06.594Z,2401.00
2023-05-10T00:44:06.587Z,2429.00
2023-05-10T00:45:06.604Z,2406.00
2023-05-10T00:46:06.693Z,2379.00
2023-05-10T00:47:06.645Z,2350.00
2023-05-10T00:48:06.751Z,2360.00
2023-05-10T00:49:06.688Z,2330.00
2023-05-10T00:50:06.705Z,2331.00
2023-05-10T00:51:06.710Z,2316.00
2023-05-10T00:52:06.752Z,2277.00
2023-05-10T00:53:06.784Z,2299.00
2023-05-10T00:54:06.832Z,2321.00
2023-05-10T00:55:06.800Z,2318.00
2023-05-10T00:56:06.869Z,2290.00
2023-05-10T00:57:06.867Z,2329.00
2023-05-10T00:58:06.900Z,2308.00
2023-05-10T00:59:06.945Z,2294.00
2023-05-10T01:00:06.982Z,2336.00
2023-05-10T01:01:07.020Z,2329.00
2023-05-10T01:02:07.011Z,2353.00
2023-05-10T01:03:07.129Z,2372.00
2023-05-10T01:04:07.044Z,2345.00
2023-05-10T01:05:07.119Z,2346.00
2023-05-10T01:06:07.125Z,2331.00
2023-05-10T01:07:07.158Z,2346.00
2023-05-10T01:08:07.158Z,2343.00
2023-05-10T01:09:07.153Z,2335.00
2023-05-10T01:10:07.214Z,2337.00
2023-05-10T01:11:07.238Z,2326.00
2023-05-10T01:12:07.304Z,2334.00
2023-05-10T01:13:07.294Z,2332.00
2023-05-10T01:14:07.351Z,2325.00
2023-05-10T01:15:07.361Z,2320.00
2023-05-10T01:16:07.503Z,2331.00
2023-05-10T01:17:07.399Z,2304.00
2023-05-10T01:18:07.439Z,2314.00
2023-05-10T01:19:07.469Z,2300.00
2023-05-10T01:20:07.476Z,2293.00
2023-05-10T01:21:07.538Z,2294.00
2023-05-10T01:22:07.564Z,2284.00
2023-05-10T01:23:07.587Z,2297.00
2023-05-10T01:24:07.621Z,2282.00
2023-05-10T01:25:07.640Z,2277.00
2023-05-10T01:26:07.663Z,2294.00
2023-05-10T01:27:07.672Z,2281.00
2023-05-10T01:28:07.693Z,2272.00
2023-05-10T01:29:07.760Z,2281.00
2023-05-10T01:30:15.650Z,2273.00
2023-05-10T01:31:08.818Z,2275.00
2023-05-10T01:32:07.760Z,2275.00
2023-05-10T01:33:07.780Z,2280.00
2023-05-10T01:34:07.721Z,2279.00
2023-05-10T01:35:07.752Z,2296.00
2023-05-10T01:36:07.738Z,2303.00
2023-05-10T01:37:07.710Z,2302.00
2023-05-10T01:38:07.720Z,2294.00
2023-05-10T01:39:07.709Z,2308.00
2023-05-10T01:40:07.677Z,2303.00
2023-05-10T01:41:07.661Z,2310.00
2023-05-10T01:42:07.645Z,2310.00
2023-05-10T01:43:07.688Z,2300.00
2023-05-10T01:44:07.666Z,2307.00
2023-05-10T01:45:07.632Z,2314.00
2023-05-10T01:46:07.610Z,2311.00
2023-05-10T01:47:07.648Z,2306.00
2023-05-10T01:48:07.793Z,2310.00
2023-05-10T01:49:07.666Z,2301.00
2023-05-10T01:50:07.943Z,2321.00
2023-05-10T01:51:07.727Z,2310.00
2023-05-10T01:52:07.735Z,2323.00
2023-05-10T01:53:07.791Z,2308.00
2023-05-10T01:54:07.805Z,2307.00
2023-05-10T01:55:07.830Z,2323.00
2023-05-10T01:56:07.899Z,2311.00
2023-05-10T01:57:07.900Z,2321.00
2023-05-10T01:58:07.934Z,2328.00
2023-05-10T01:59:07.973Z,2323.00
2023-05-10T02:00:07.999Z,2326.00
2023-05-10T02:01:08.084Z,2314.00
2023-05-10T02:02:08.085Z,2320.00
2023-05-10T02:03:08.218Z,2329.00
2023-05-10T02:04:08.130Z,2320.00
2023-05-10T02:05:08.162Z,2330.00
2023-05-10T02:06:08.183Z,2328.00
2023-05-10T02:07:08.192Z,2312.00
2023-05-10T02:08:09.140Z,2308.00
2023-05-10T02:09:08.267Z,2321.00
2023-05-10T02:10:08.301Z,2321.00
2023-05-10T02:11:08.317Z,2309.00
2023-05-10T02:12:08.360Z,2313.00
2023-05-10T02:13:08.477Z,2322.00
2023-05-10T02:14:08.454Z,2312.00
2023-05-10T02:15:08.454Z,2308.00
2023-05-10T02:16:08.526Z,2296.00
2023-05-10T02:17:08.513Z,2300.00
2023-05-10T02:18:08.564Z,2290.00
2023-05-10T02:19:08.610Z,2310.00
2023-05-10T02:20:08.599Z,2310.00
2023-05-10T02:21:08.629Z,2303.00
2023-05-10T02:22:08.657Z,2303.00
2023-05-10T02:23:08.739Z,2314.00
2023-05-10T02:24:08.741Z,2290.00
2023-05-10T02:25:08.752Z,2301.00
2023-05-10T02:26:08.847Z,2293.00
2023-05-10T02:27:08.801Z,2299.00
2023-05-10T02:28:08.901Z,2303.00
2023-05-10T02:29:08.910Z,2298.00
2023-05-10T02:30:08.882Z,2285.00
2023-05-10T02:31:08.951Z,2291.00
2023-05-10T02:32:09.064Z,2286.00
2023-05-10T02:33:09.032Z,2284.00
2023-05-10T02:34:09.014Z,2292.00
2023-05-10T02:35:09.070Z,2286.00
2023-05-10T02:36:09.069Z,2294.00
2023-05-10T02:37:09.117Z,2280.00
2023-05-10T02:38:09.161Z,2283.00
2023-05-10T02:39:09.180Z,2282.00
2023-05-10T02:40:09.191Z,2276.00
2023-05-10T02:41:09.238Z,2263.00
2023-05-10T02:42:09.280Z,2256.00
2023-05-10T02:43:09.297Z,2248.00
2023-05-10T02:44:09.344Z,2231.00
2023-05-10T02:45:09.356Z,2227.00
2023-05-10T02:46:09.458Z,2225.00
2023-05-10T02:47:09.415Z,2211.00
2023-05-10T02:48:09.544Z,2199.00
2023-05-10T02:49:10.168Z,2191.00
2023-05-10T02:50:09.484Z,2205.00
2023-05-10T02:51:09.504Z,2191.00
2023-05-10T02:52:09.550Z,2184.00
2023-05-10T02:53:09.568Z,2178.00
2023-05-10T02:54:09.565Z,2152.00
2023-05-10T02:55:09.602Z,2166.00
2023-05-10T02:56:09.677Z,2163.00
2023-05-10T02:57:09.667Z,2159.00
2023-05-10T02:58:09.720Z,2144.00
2023-05-10T02:59:09.731Z,2145.00
2023-05-10T03:00:09.766Z,2140.00
2023-05-10T03:01:09.787Z,2146.00
2023-05-10T03:02:09.815Z,2130.00
2023-05-10T03:03:09.963Z,2143.00
2023-05-10T03:04:09.889Z,2137.00
2023-05-10T03:05:09.927Z,2136.00
2023-05-10T03:06:09.955Z,2144.00
2023-05-10T03:07:10.304Z,2137.00
2023-05-10T03:08:10.022Z,2145.00
2023-05-10T03:09:10.033Z,2136.00
2023-05-10T03:10:10.078Z,2129.00
2023-05-10T03:11:10.108Z,2130.00
2023-05-10T03:12:10.156Z,2148.00
2023-05-10T03:13:10.211Z,2125.00
2023-05-10T03:14:10.193Z,2133.00
2023-05-10T03:15:10.209Z,2121.00
2023-05-10T03:16:10.401Z,2127.00
2023-05-10T03:17:10.320Z,2119.00
2023-05-10T03:18:10.374Z,2128.00
2023-05-10T03:19:10.352Z,2141.00
2023-05-10T03:20:10.412Z,2123.00
2023-05-10T03:21:10.449Z,2124.00
2023-05-10T03:22:10.498Z,2117.00
2023-05-10T03:23:10.520Z,2110.00
2023-05-10T03:24:10.527Z,2125.00
2023-05-10T03:25:10.609Z,2117.00
2023-05-10T03:26:10.608Z,2121.00
2023-05-10T03:27:10.668Z,2114.00
2023-05-10T03:28:10.665Z,2104.00
2023-05-10T03:29:10.700Z,2108.00
2023-05-10T03:30:10.732Z,2124.00
2023-05-10T03:31:10.853Z,2131.00
2023-05-10T03:32:10.795Z,2105.00
2023-05-10T03:33:10.827Z,2110.00
2023-05-10T03:34:10.877Z,2113.00
2023-05-10T03:35:10.977Z,2111.00
2023-05-10T03:36:10.936Z,2106.00
2023-05-10T03:37:10.989Z,2122.00
2023-05-10T03:38:11.025Z,2131.00
2023-05-10T03:39:11.064Z,2129.00
2023-05-10T03:40:11.073Z,2145.00
2023-05-10T03:41:12.069Z,2137.00
2023-05-10T03:42:11.160Z,2145.00
2023-05-10T03:43:11.199Z,2160.00
2023-05-10T03:44:11.168Z,2166.00
2023-05-10T03:45:11.206Z,2160.00
2023-05-10T03:46:11.278Z,2168.00
2023-05-10T03:47:11.265Z,2182.00
2023-05-10T03:48:11.328Z,2173.00
2023-05-10T03:49:11.335Z,2193.00
2023-05-10T03:50:11.386Z,2191.00
2023-05-10T03:51:11.451Z,2174.00
2023-05-10T03:52:11.437Z,2181.00
2023-05-10T03:53:11.472Z,2181.00
2023-05-10T03:54:11.483Z,2173.00
2023-05-10T03:55:11.523Z,2177.00
2023-05-10T03:56:11.530Z,2170.00
2023-05-10T03:57:11.565Z,2162.00
2023-05-10T03:58:11.647Z,2172.00
2023-05-10T03:59:11.656Z,2173.00
2023-05-10T04:00:11.700Z,2167.00
2023-05-10T04:01:11.712Z,2180.00
2023-05-10T04:02:11.735Z,2165.00
2023-05-10T04:03:11.842Z,2152.00
2023-05-10T04:04:11.825Z,2140.00
2023-05-10T04:05:11.788Z,2147.00
2023-05-10T04:06:11.843Z,2154.00
2023-05-10T04:07:11.855Z,2151.00
2023-05-10T04:08:11.921Z,2145.00
2023-05-10T04:09:11.877Z,2158.00
2023-05-10T04:10:11.959Z,2158.00
2023-05-10T04:11:12.030Z,2156.00
2023-05-10T04:12:12.005Z,2138.00
2023-05-10T04:13:12.027Z,2148.00
2023-05-10T04:14:12.010Z,2141.00
2023-05-10T04:15:12.076Z,2142.00
2023-05-10T04:16:12.079Z,2130.00
2023-05-10T04:17:12.184Z,2138.00
2023-05-10T04:18:12.163Z,2133.00
2023-05-10T04:19:12.198Z,2137.00
2023-05-10T04:20:12.215Z,2109.00
2023-05-10T04:21:12.215Z,2104.00
2023-05-10T04:22:12.263Z,2082.00
2023-05-10T04:23:12.287Z,2097.00
2023-05-10T04:24:13.472Z,2078.00
2023-05-10T04:25:12.357Z,2078.00
2023-05-10T04:26:12.377Z,2075.00
2023-05-10T04:27:12.386Z,2069.00
2023-05-10T04:28:12.468Z,2065.00
2023-05-10T04:29:12.479Z,2056.00
2023-05-10T04:30:12.535Z,2068.00
2023-05-10T04:31:12.669Z,2033.00
2023-05-10T04:32:12.533Z,2040.00
2023-05-10T04:33:12.594Z,2026.00
2023-05-10T04:34:12.641Z,2031.00
2023-05-10T04:35:12.639Z,2026.00
2023-05-10T04:36:12.671Z,2025.00
2023-05-10T04:37:12.694Z,2012.00
2023-05-10T04:38:12.767Z,2008.00
2023-05-10T04:39:12.803Z,1996.00
2023-05-10T04:40:12.851Z,2010.00
2023-05-10T04:41:12.847Z,1992.00
2023-05-10T04:42:12.926Z,1994.00
2023-05-10T04:43:12.918Z,1982.00
2023-05-10T04:44:12.967Z,1980.00
2023-05-10T04:45:12.993Z,1994.00
2023-05-10T04:46:13.069Z,1971.00
2023-05-10T04:47:13.074Z,1967.00
2023-05-10T04:48:13.116Z,1962.00
2023-05-10T04:49:13.160Z,1970.00
2023-05-10T04:50:13.167Z,1963.00
2023-05-10T04:51:13.218Z,1943.00
2023-05-10T04:52:13.268Z,1938.00
2023-05-10T04:53:15.268Z,1943.00
2023-05-10T04:54:13.459Z,1947.00
2023-05-10T04:55:13.480Z,1953.00
2023-05-10T04:56:13.603Z,1960.00
2023-05-10T04:57:13.626Z,1969.00
2023-05-10T04:58:13.667Z,1996.00
2023-05-10T04:59:13.717Z,1995.00
2023-05-10T05:01:40.346Z,500.00
2023-05-10T05:02:32.742Z,500.00
2023-05-10T05:03:32.722Z,500.00
2023-05-10T05:04:32.632Z,500.00
2023-05-10T05:05:32.606Z,500.00
2023-05-10T05:06:32.605Z,500.00
2023-05-10T05:07:32.606Z,503.00
2023-05-10T05:08:32.584Z,510.00
2023-05-10T05:09:32.553Z,506.00
2023-05-10T05:10:32.568Z,494.00
2023-05-10T05:11:32.572Z,500.00
2023-05-10T05:12:32.584Z,500.00
2023-05-10T05:13:32.586Z,501.00
2023-05-10T05:14:32.652Z,498.00
2023-05-10T05:15:32.660Z,500.00
2023-05-10T05:16:32.685Z,500.00
2023-05-10T05:17:32.683Z,502.00
2023-05-10T05:18:32.678Z,500.00
2023-05-10T05:19:32.648Z,504.00
2023-05-10T05:20:32.679Z,507.00
2023-05-10T05:21:32.742Z,508.00
2023-05-10T05:22:32.744Z,502.00
2023-05-10T05:23:32.763Z,514.00
2023-05-10T05:24:32.769Z,518.00
2023-05-10T05:25:32.796Z,521.00
2023-05-10T05:26:32.776Z,519.00
2023-05-10T05:27:32.787Z,527.00
2023-05-10T05:28:32.784Z,536.00
2023-05-10T05:29:32.753Z,540.00
2023-05-10T05:30:32.819Z,551.00
2023-05-10T05:31:32.845Z,574.00
2023-05-10T05:32:32.872Z,560.00
2023-05-10T05:33:32.856Z,526.00
2023-05-10T05:34:32.839Z,515.00
2023-05-10T05:35:32.801Z,533.00
2023-05-10T05:36:32.808Z,603.00
2023-05-10T05:37:32.860Z,647.00
2023-05-10T05:38:33.364Z,722.00
2023-05-10T05:39:32.878Z,753.00
2023-05-10T05:40:32.927Z,810.00
2023-05-10T05:41:32.988Z,798.00
2023-05-10T05:42:33.057Z,722.00
2023-05-10T05:43:33.468Z,691.00
2023-05-10T05:44:33.128Z,684.00
2023-05-10T05:45:33.151Z,668.00
2023-05-10T05:46:40.919Z,645.00
2023-05-10T05:47:33.250Z,637.00
2023-05-10T05:48:33.449Z,630.00
2023-05-10T05:49:33.182Z,654.00
2023-05-10T05:50:33.194Z,682.00
2023-05-10T05:51:33.177Z,803.00
2023-05-10T05:52:33.185Z,751.00
2023-05-10T05:53:33.126Z,645.00
2023-05-10T05:54:33.388Z,636.00
2023-05-10T05:55:33.116Z,611.00
2023-05-10T05:56:33.121Z,586.00
2023-05-10T05:57:33.316Z,522.00
2023-05-10T05:58:33.429Z,500.00
2023-05-10T05:59:33.407Z,525.00
2023-05-10T06:00:33.118Z,599.00
2023-05-10T06:01:33.150Z,615.00
2023-05-10T06:02:33.187Z,613.00
2023-05-10T06:03:33.162Z,625.00
2023-05-10T06:04:33.469Z,621.00
2023-05-10T06:05:33.118Z,615.00
2023-05-10T06:06:33.157Z,622.00
2023-05-10T06:07:33.241Z,618.00
2023-05-10T06:08:33.205Z,616.00
2023-05-10T06:09:33.206Z,612.00
2023-05-10T06:10:33.194Z,605.00
2023-05-10T06:11:33.275Z,572.00
2023-05-10T06:12:33.286Z,566.00
2023-05-10T06:13:33.712Z,563.00
2023-05-10T06:14:33.884Z,587.00
2023-05-10T06:15:33.462Z,602.00
2023-05-10T06:16:33.558Z,615.00
2023-05-10T06:17:33.650Z,628.00
2023-05-10T06:18:33.648Z,623.00
2023-05-10T06:19:34.409Z,626.00
2023-05-10T06:20:33.766Z,643.00
2023-05-10T06:21:33.839Z,644.00
2023-05-10T06:22:33.872Z,653.00
2023-05-10T06:23:33.968Z,669.00
2023-05-10T06:24:34.017Z,678.00
2023-05-10T06:25:34.026Z,686.00
2023-05-10T06:26:34.148Z,727.00
2023-05-10T06:27:34.297Z,725.00
2023-05-10T06:28:34.238Z,745.00
2023-05-10T06:29:34.340Z,728.00
2023-05-10T06:30:34.377Z,728.00
2023-05-10T06:31:34.434Z,726.00
2023-05-10T06:32:34.509Z,738.00
2023-05-10T06:33:34.569Z,756.00
2023-05-10T06:34:34.628Z,737.00
2023-05-10T06:35:34.628Z,768.00
2023-05-10T06:36:34.645Z,756.00
2023-05-10T06:37:34.640Z,743.00
2023-05-10T06:38:34.722Z,743.00
2023-05-10T06:39:34.834Z,870.00
2023-05-10T06:40:34.875Z,835.00
2023-05-10T06:41:34.889Z,817.00
2023-05-10T06:42:34.978Z,829.00
2023-05-10T06:43:34.979Z,827.00
2023-05-10T06:44:35.387Z,834.00
2023-05-10T06:45:35.022Z,823.00
2023-05-10T06:47:54.045Z,500.00
2023-05-10T06:48:53.981Z,500.00
2023-05-10T06:49:53.942Z,500.00
2023-05-10T06:50:53.952Z,500.00
2023-05-10T06:51:53.902Z,500.00
2023-05-10T06:52:53.922Z,497.00
2023-05-10T06:53:53.904Z,500.00
2023-05-10T06:54:53.911Z,503.00
2023-05-10T06:55:53.861Z,508.00
2023-05-10T06:56:53.894Z,512.00
2023-05-10T06:57:53.890Z,522.00
2023-05-10T06:58:53.902Z,519.00
2023-05-10T06:59:53.844Z,520.00
2023-05-10T07:00:53.981Z,528.00
2023-05-10T07:01:53.889Z,509.00
2023-05-10T07:02:53.874Z,500.00
2023-05-10T07:03:53.826Z,503.00
2023-05-10T07:04:53.881Z,502.00
2023-05-10T07:05:53.805Z,500.00
2023-05-10T07:06:53.799Z,507.00
2023-05-10T07:07:53.849Z,509.00
2023-05-10T07:08:53.803Z,519.00
2023-05-10T07:09:54.171Z,505.00
2023-05-10T07:10:53.784Z,503.00
2023-05-10T07:11:53.753Z,506.00
2023-05-10T07:12:53.851Z,500.00
2023-05-10T07:13:53.729Z,500.00
2023-05-10T07:14:53.769Z,501.00
2023-05-10T07:15:53.789Z,553.00
2023-05-10T07:16:53.751Z,605.00
2023-05-10T07:17:53.813Z,659.00
2023-05-10T07:18:53.726Z,781.00
2023-05-10T07:19:53.735Z,823.00
2023-05-10T07:20:53.799Z,853.00
2023-05-10T07:21:53.681Z,846.00
2023-05-10T07:22:53.704Z,846.00
2023-05-10T07:23:53.696Z,670.00
2023-05-10T07:24:53.712Z,680.00
2023-05-10T07:25:53.713Z,670.00
2023-05-10T07:26:53.680Z,688.00
2023-05-10T07:27:53.628Z,660.00
2023-05-10T07:28:53.655Z,655.00
2023-05-10T07:29:53.705Z,629.00
2023-05-10T07:30:53.665Z,607.00
2023-05-10T07:31:54.481Z,607.00
2023-05-10T07:32:53.808Z,653.00
2023-05-10T07:33:53.820Z,691.00
2023-05-10T07:34:53.874Z,702.00
2023-05-10T07:35:53.893Z,846.00
2023-05-10T07:36:53.965Z,782.00
2023-05-10T07:37:54.000Z,761.00
2023-05-10T07:38:54.034Z,706.00
2023-05-10T07:39:54.121Z,918.00
2023-05-10T07:40:54.117Z,870.00
2023-05-10T07:41:54.155Z,840.00
2023-05-10T07:42:54.208Z,815.00
2023-05-10T07:43:54.249Z,773.00
2023-05-10T07:44:54.339Z,748.00
2023-05-10T07:45:56.105Z,697.00
2023-05-10T07:46:54.362Z,665.00
2023-05-10T07:47:54.464Z,690.00
2023-05-10T07:48:54.484Z,710.00
2023-05-10T07:49:54.557Z,769.00
2023-05-10T07:50:54.570Z,827.00
2023-05-10T07:51:54.600Z,737.00
2023-05-10T07:52:54.599Z,605.00
2023-05-10T07:53:54.669Z,523.00
2023-05-10T07:54:54.721Z,500.00
2023-05-10T07:55:54.801Z,508.00
2023-05-10T07:56:54.808Z,584.00
2023-05-10T07:57:54.832Z,618.00
2023-05-10T07:58:54.882Z,668.00
2023-05-10T07:59:54.955Z,762.00
2023-05-10T08:00:54.998Z,799.00
2023-05-10T08:01:55.077Z,890.00
2023-05-10T08:02:55.129Z,936.00
2023-05-10T08:03:55.273Z,978.00
2023-05-10T08:04:55.195Z,979.00
2023-05-10T08:05:55.223Z,1007.00
2023-05-10T08:06:55.289Z,1011.00
2023-05-10T08:07:55.300Z,1032.00
2023-05-10T08:08:55.338Z,1054.00
2023-05-10T08:09:55.450Z,1039.00
2023-05-10T08:10:55.635Z,1057.00
2023-05-10T08:11:55.468Z,1087.00
2023-05-10T08:12:55.567Z,1078.00
2023-05-10T08:13:55.575Z,1064.00
2023-05-10T08:14:55.600Z,1037.00
2023-05-10T08:15:56.528Z,1048.00
2023-05-10T08:16:55.723Z,1033.00
2023-05-10T08:17:55.782Z,997.00
2023-05-10T08:18:55.848Z,870.00
2023-05-10T08:19:55.870Z,735.00
2023-05-10T08:20:55.927Z,660.00
2023-05-10T08:21:55.924Z,734.00
2023-05-10T08:22:55.943Z,660.00
2023-05-10T08:23:56.014Z,605.00
2023-05-10T08:24:56.054Z,568.00
2023-05-10T08:25:56.160Z,533.00
2023-05-10T08:26:56.154Z,528.00
2023-05-10T08:27:56.289Z,520.00
2023-05-10T08:28:56.293Z,518.00
2023-05-10T08:29:56.320Z,514.00
2023-05-10T08:30:56.715Z,512.00
2023-05-10T08:31:56.311Z,506.00
2023-05-10T08:32:56.315Z,499.00
2023-05-10T08:33:56.290Z,505.00
2023-05-10T08:34:56.302Z,509.00
2023-05-10T08:35:56.664Z,503.00
2023-05-10T08:36:56.323Z,500.00
2023-05-10T08:37:56.321Z,507.00
2023-05-10T08:38:56.309Z,506.00
2023-05-10T08:39:56.323Z,506.00
2023-05-10T08:40:56.346Z,513.00
2023-05-10T08:41:56.352Z,507.00
2023-05-10T08:42:56.348Z,528.00
2023-05-10T08:43:56.367Z,541.00
2023-05-10T08:44:56.315Z,527.00
2023-05-10T08:45:56.685Z,533.00
2023-05-10T08:46:56.325Z,540.00
2023-05-10T08:47:56.328Z,534.00
2023-05-10T08:48:56.318Z,520.00
2023-05-10T08:49:56.299Z,515.00
2023-05-10T08:50:56.713Z,513.00
2023-05-10T08:51:56.381Z,510.00
2023-05-10T08:52:56.263Z,526.00
2023-05-10T08:53:56.274Z,565.00
2023-05-10T08:54:56.321Z,638.00
2023-05-10T08:55:56.387Z,705.00
2023-05-10T08:56:56.493Z,759.00
2023-05-10T08:57:56.504Z,799.00
2023-05-10T08:58:56.567Z,793.00
2023-05-10T08:59:56.608Z,771.00
2023-05-10T09:00:57.210Z,751.00
2023-05-10T09:01:56.707Z,828.00
2023-05-10T09:02:56.779Z,892.00
2023-05-10T09:03:56.854Z,926.00
2023-05-10T09:04:56.970Z,936.00
2023-05-10T09:05:57.176Z,910.00
2023-05-10T09:06:56.952Z,897.00
2023-05-10T09:07:56.958Z,899.00
2023-05-10T09:08:57.036Z,902.00
2023-05-10T09:09:57.094Z,879.00
2023-05-10T09:10:57.164Z,868.00
2023-05-10T09:11:57.204Z,871.00
2023-05-10T09:12:59.214Z,839.00
2023-05-10T09:13:57.302Z,854.00
2023-05-10T09:14:57.325Z,840.00
2023-05-10T09:16:00.276Z,817.00
2023-05-10T09:16:57.438Z,818.00
2023-05-10T09:17:57.406Z,818.00
2023-05-10T09:18:57.425Z,785.00
2023-05-10T09:19:57.322Z,770.00
2023-05-10T09:20:57.356Z,743.00
2023-05-10T09:21:57.346Z,738.00
2023-05-10T09:22:57.331Z,745.00
2023-05-10T09:23:57.299Z,737.00
2023-05-10T09:24:57.306Z,774.00
2023-05-10T09:25:57.719Z,785.00
2023-05-10T09:26:57.257Z,805.00
2023-05-10T09:27:57.267Z,777.00
2023-05-10T09:28:57.305Z,785.00
2023-05-10T09:29:58.387Z,818.00
2023-05-10T09:30:57.719Z,836.00
2023-05-10T09:31:57.457Z,854.00
2023-05-10T09:32:57.512Z,852.00
2023-05-10T09:33:57.526Z,851.00
2023-05-10T09:34:57.569Z,834.00
2023-05-10T09:35:57.714Z,740.00
2023-05-10T09:36:57.651Z,773.00
2023-05-10T09:37:58.658Z,811.00
2023-05-10T09:38:57.715Z,762.00
2023-05-10T09:39:57.773Z,682.00
2023-05-10T09:40:58.234Z,651.00
2023-05-10T09:41:57.808Z,635.00
2023-05-10T09:42:58.308Z,610.00
2023-05-10T09:43:57.843Z,597.00
2023-05-10T09:44:57.864Z,600.00
2023-05-10T09:45:58.266Z,615.00
2023-05-10T09:46:57.955Z,618.00
2023-05-10T09:47:58.054Z,625.00
2023-05-10T09:48:58.037Z,620.00
2023-05-10T09:49:58.065Z,629.00
2023-05-10T09:50:58.718Z,643.00
2023-05-10T09:51:58.152Z,690.00
2023-05-10T09:52:58.203Z,711.00
2023-05-10T09:53:58.279Z,715.00
2023-05-10T09:54:58.268Z,737.00
2023-05-10T09:55:58.331Z,780.00
2023-05-10T09:56:58.333Z,808.00
2023-05-10T09:57:58.360Z,829.00
2023-05-10T09:58:58.432Z,859.00
2023-05-10T09:59:58.480Z,873.00
2023-05-10T10:00:58.692Z,916.00
2023-05-10T10:01:58.596Z,945.00
2023-05-10T10:02:58.667Z,967.00
2023-05-10T10:03:58.646Z,970.00
2023-05-10T10:04:58.694Z,998.00
2023-05-10T10:05:58.713Z,980.00
2023-05-10T10:06:58.730Z,987.00
2023-05-10T10:07:58.809Z,969.00
2023-05-10T10:08:58.839Z,964.00
2023-05-10T10:09:58.901Z,970.00
2023-05-10T10:10:59.217Z,981.00
2023-05-10T10:11:58.977Z,995.00
2023-05-10T10:12:58.974Z,1022.00
2023-05-10T10:13:58.999Z,1001.00
2023-05-10T10:14:59.053Z,1006.00
2023-05-10T10:15:59.081Z,993.00
2023-05-10T10:17:08.101Z,1009.00
2023-05-10T10:18:00.198Z,1010.00
2023-05-10T10:18:59.198Z,1010.00
2023-05-10T10:19:59.117Z,749.00
2023-05-10T10:20:59.117Z,572.00
2023-05-10T10:21:59.196Z,506.00
2023-05-10T10:22:59.134Z,508.00
2023-05-10T10:23:59.040Z,499.00
2023-05-10T10:24:59.068Z,500.00
2023-05-10T10:25:59.058Z,500.00
2023-05-10T10:26:59.230Z,500.00
2023-05-10T10:27:59.034Z,484.00
2023-05-10T10:28:59.055Z,484.00
2023-05-10T10:29:59.053Z,539.00
2023-05-10T10:30:59.011Z,565.00
2023-05-10T10:31:59.230Z,568.00
2023-05-10T10:32:59.062Z,578.00
2023-05-10T10:33:59.062Z,574.00
2023-05-10T10:34:58.997Z,549.00
2023-05-10T10:35:59.024Z,585.00
2023-05-10T10:36:59.196Z,567.00
2023-05-10T10:37:59.003Z,652.00
2023-05-10T10:38:59.306Z,663.00
2023-05-10T10:39:58.932Z,652.00
2023-05-10T10:40:58.980Z,742.00
2023-05-10T10:41:59.241Z,819.00
2023-05-10T10:42:58.994Z,603.00
2023-05-10T10:43:58.989Z,498.00
2023-05-10T10:44:59.447Z,500.00
2023-05-10T10:45:59.077Z,456.00
2023-05-10T10:46:59.236Z,500.00
2023-05-10T10:47:59.162Z,455.00
2023-05-10T10:48:59.184Z,491.00
2023-05-10T10:49:59.242Z,512.00
2023-05-10T10:50:59.252Z,505.00
2023-05-10T10:51:59.415Z,487.00
2023-05-10T10:52:59.367Z,511.00
2023-05-10T10:53:59.387Z,528.00
2023-05-10T10:54:59.313Z,524.00
2023-05-10T10:55:59.447Z,541.00
2023-05-10T10:56:59.746Z,555.00
2023-05-10T10:57:59.453Z,578.00
2023-05-10T10:58:59.494Z,578.00
2023-05-10T10:59:59.583Z,591.00
2023-05-10T11:00:59.566Z,610.00
2023-05-10T11:01:59.605Z,641.00
2023-05-10T11:02:59.632Z,637.00
2023-05-10T11:03:59.746Z,609.00
2023-05-10T11:04:59.722Z,581.00
2023-05-10T11:05:59.720Z,591.00
2023-05-10T11:06:59.718Z,622.00
2023-05-10T11:07:59.743Z,642.00
2023-05-10T11:08:59.731Z,670.00
2023-05-10T11:09:59.739Z,654.00
2023-05-10T11:10:59.774Z,644.00
2023-05-10T11:11:59.759Z,643.00
2023-05-10T11:12:59.751Z,605.00
2023-05-10T11:14:00.145Z,563.00
2023-05-10T11:14:59.805Z,510.00
2023-05-10T11:15:59.783Z,506.00
2023-05-10T11:16:59.843Z,547.00
2023-05-10T11:17:59.965Z,585.00
2023-05-10T11:19:00.058Z,628.00
2023-05-10T11:19:59.994Z,636.00
2023-05-10T11:21:00.030Z,683.00
2023-05-10T11:22:00.387Z,752.00
2023-05-10T11:23:00.621Z,673.00
2023-05-10T11:24:00.055Z,616.00
2023-05-10T11:25:00.088Z,650.00
2023-05-10T11:26:00.137Z,832.00
2023-05-10T11:27:00.109Z,1089.00
2023-05-10T11:28:00.312Z,1038.00
2023-05-10T11:29:00.233Z,1120.00
2023-05-10T11:30:00.277Z,1188.00
2023-05-10T11:31:00.348Z,1422.00
2023-05-10T11:32:00.290Z,1353.00
2023-05-10T11:33:00.813Z,1264.00
2023-05-10T11:34:00.328Z,1316.00
2023-05-10T11:35:00.331Z,1274.00
2023-05-10T11:36:00.415Z,1308.00
2023-05-10T11:37:00.437Z,1312.00
2023-05-10T11:38:00.734Z,1271.00
2023-05-10T11:39:00.564Z,1123.00
2023-05-10T11:40:00.883Z,1097.00
2023-05-10T11:41:00.663Z,1180.00
2023-05-10T11:42:00.702Z,1225.00
2023-05-10T11:43:00.776Z,1044.00
2023-05-10T11:44:00.754Z,878.00
2023-05-10T11:45:00.807Z,946.00
2023-05-10T11:46:00.878Z,1021.00
2023-05-10T11:47:00.915Z,924.00
2023-05-10T11:48:00.991Z,710.00
2023-05-10T11:49:00.976Z,656.00
2023-05-10T11:50:01.064Z,635.00
2023-05-10T11:51:00.990Z,658.00
2023-05-10T11:52:00.956Z,642.00
2023-05-10T11:53:01.051Z,592.00
2023-05-10T11:54:00.997Z,563.00
2023-05-10T11:55:01.029Z,522.00
2023-05-10T11:56:01.062Z,500.00
2023-05-10T11:57:01.004Z,520.00
2023-05-10T11:58:01.072Z,552.00
2023-05-10T11:59:01.049Z,527.00
2023-05-10T12:00:01.076Z,514.00
2023-05-10T12:01:01.110Z,507.00
2023-05-10T12:02:01.159Z,522.00
2023-05-10T12:03:01.304Z,516.00
2023-05-10T12:04:01.614Z,525.00
2023-05-10T12:05:01.437Z,565.00
2023-05-10T12:06:01.258Z,587.00
2023-05-10T12:07:01.316Z,617.00
2023-05-10T12:08:01.295Z,875.00
2023-05-10T12:09:01.334Z,1222.00
2023-05-10T12:10:01.303Z,1459.00
2023-05-10T12:11:01.407Z,1636.00
2023-05-10T12:12:01.451Z,1761.00
2023-05-10T12:13:01.494Z,1884.00
2023-05-10T12:14:01.551Z,2066.00
2023-05-10T12:15:01.571Z,2193.00
2023-05-10T12:16:01.569Z,2207.00
2023-05-10T12:17:01.650Z,2181.00
2023-05-10T12:18:01.656Z,2166.00
2023-05-10T12:19:01.779Z,2215.00
2023-05-10T12:20:01.655Z,2220.00